Time;durP1;ratioP1;P1;durP2;ratioP2;P2;SDS_P1;SDS_P2;PMS_P1;PMS_P2;Temp;Humidity;BMP_temperature;BMP_pressure;BME280_temperature;BME280_humidity;BME280_pressure;Samples;Min_cycle;Max_cycle;Signal;HPM_P1;HPM_P2
2022/02/02 00:01:19;;;;;;;218.00;100.05;;;;;;;;;;6247366;23;19993;-73
2022/02/02 00:03:50;;;;;;;223.00;96.30;;;;;;;;;;6221035;23;20043;-73
2022/02/02 00:06:34;;;;;;;219.00;100.03;;;;;;;;;;6246569;23;20046;-73
2022/02/02 00:09:09;;;;;;;217.57;100.10;;;;;;;;;;6247227;23;20027;-73
2022/02/02 00:14:18;;;;;;;239.15;102.75;;;;;;;;;;6248908;23;20003;-73
2022/02/02 00:16:52;;;;;;;238.70;97.85;;;;;;;;;;6223108;23;20018;-73
2022/02/02 00:19:36;;;;;;;227.10;94.72;;;;;;;;;;6249804;23;20019;-73
2022/02/02 00:22:09;;;;;;;232.77;104.25;;;;;;;;;;6249454;23;19988;-73
2022/02/02 00:25:00;;;;;;;224.82;96.68;;;;;;;;;;6247995;22;20081;-73
2022/02/02 00:27:26;;;;;;;209.10;87.40;;;;;;;;;;6248813;23;19995;-73
2022/02/02 00:29:58;;;;;;;212.55;88.93;;;;;;;;;;6248563;23;20014;-73
2022/02/02 00:34:50;;;;;;;221.00;99.82;;;;;;;;;;6250561;23;20383;-73
2022/02/02 00:37:17;;;;;;;215.27;98.28;;;;;;;;;;6222564;23;20046;-73
2022/02/02 00:39:43;;;;;;;196.52;87.18;;;;;;;;;;6250870;23;19995;-73
2022/02/02 00:42:09;;;;;;;225.57;97.93;;;;;;;;;;6222071;23;19996;-73
2022/02/02 00:44:41;;;;;;;213.13;90.25;;;;;;;;;;6249214;23;20035;-73
2022/02/02 00:47:07;;;;;;;206.75;90.82;;;;;;;;;;6248800;23;19999;-73
2022/02/02 00:49:34;;;;;;;223.75;93.20;;;;;;;;;;6197499;23;20454;-75
2022/02/02 00:52:00;;;;;;;211.60;91.65;;;;;;;;;;6246455;22;20027;-75
2022/02/02 00:54:27;;;;;;;215.73;93.25;;;;;;;;;;6226530;23;20003;-75
2022/02/02 00:56:53;;;;;;;221.00;95.18;;;;;;;;;;6248496;23;19988;-75
2022/02/02 00:59:21;;;;;;;220.80;98.03;;;;;;;;;;6222587;23;20086;-75
2022/02/02 01:01:47;;;;;;;214.38;92.70;;;;;;;;;;6222689;23;20391;-73
2022/02/02 01:04:13;;;;;;;232.40;97.82;;;;;;;;;;6248845;23;20079;-73
2022/02/02 01:06:45;;;;;;;212.40;91.80;;;;;;;;;;6223410;23;20008;-73
2022/02/02 01:19:56;;;;;;;233.30;99.05;;;;;;;;;;6215129;23;20007;-73
2022/02/02 01:27:45;;;;;;;190.48;97.40;;;;;;;;;;6248758;23;19993;-74
2022/02/02 01:27:53;;;;;;;207.43;89.22;;;;;;;;;;6248297;23;20016;-74
2022/02/02 01:30:19;;;;;;;222.60;93.90;;;;;;;;;;6247903;23;20000;-74
2022/02/02 01:32:46;;;;;;;204.65;92.78;;;;;;;;;;6198319;23;20039;-74
2022/02/02 01:35:16;;;;;;;238.48;103.65;;;;;;;;;;6222402;23;20392;-74
2022/02/02 01:37:43;;;;;;;233.85;104.63;;;;;;;;;;6219231;23;20027;-73
2022/02/02 01:40:19;;;;;;;229.77;102.40;;;;;;;;;;6247959;23;19996;-74
2022/02/02 01:42:54;;;;;;;223.27;96.97;;;;;;;;;;6256763;23;19993;-74
2022/02/02 01:45:27;;;;;;;254.25;116.63;;;;;;;;;;6228398;23;19992;-74
2022/02/02 01:48:07;;;;;;;244.77;103.90;;;;;;;;;;6204010;23;20000;-74
2022/02/02 01:51:05;;;;;;;228.27;90.53;;;;;;;;;;6201820;23;20000;-74
2022/02/02 01:56:04;;;;;;;255.93;95.15;;;;;;;;;;6248548;23;20004;-74
2022/02/02 02:01:15;;;;;;;241.77;102.20;;;;;;;;;;6243757;23;20318;-74
2022/02/02 02:03:41;;;;;;;241.05;98.90;;;;;;;;;;6248846;23;20004;-75
2022/02/02 02:06:07;;;;;;;240.48;102.60;;;;;;;;;;6248228;23;19996;-75
2022/02/02 02:08:36;;;;;;;216.35;97.63;;;;;;;;;;6251412;23;20000;-74
2022/02/02 02:11:04;;;;;;;223.93;93.57;;;;;;;;;;6253468;23;19989;-75
2022/02/02 02:16:00;;;;;;;215.90;91.78;;;;;;;;;;6223596;23;20004;-75
2022/02/02 02:18:26;;;;;;;230.23;85.63;;;;;;;;;;6199786;23;19996;-75
2022/02/02 02:20:52;;;;;;;205.10;83.63;;;;;;;;;;6251109;23;20020;-75
2022/02/02 02:23:19;;;;;;;213.00;81.95;;;;;;;;;;6252986;23;20398;-75
2022/02/02 02:25:45;;;;;;;202.82;83.55;;;;;;;;;;6252609;23;20374;-74
2022/02/02 02:33:30;;;;;;;222.82;83.85;;;;;;;;;;6255649;23;20119;-75
2022/02/02 02:57:20;;;;;;;231.82;92.97;;;;;;;;;;6220190;23;20054;-75
2022/02/02 03:13:44;;;;;;;223.57;85.25;;;;;;;;;;6156403;23;20055;-75
2022/02/02 03:31:13;;;;;;;219.80;87.63;;;;;;;;;;6222230;23;20024;-74
2022/02/02 03:34:40;;;;;;;220.68;84.72;;;;;;;;;;6230861;23;19996;-75
2022/02/02 03:53:02;;;;;;;196.68;79.97;;;;;;;;;;6225030;23;20073;-74
2022/02/02 04:05:41;;;;;;;221.38;86.35;;;;;;;;;;6250933;23;19992;-75
2022/02/02 04:08:22;;;;;;;214.23;87.93;;;;;;;;;;6222368;23;19992;-74
2022/02/02 04:10:48;;;;;;;237.95;91.13;;;;;;;;;;6223879;23;19995;-74
2022/02/02 04:13:44;;;;;;;213.18;83.45;;;;;;;;;;6221521;23;19992;-74
2022/02/02 04:57:22;;;;;;;12.15;7.38;;;;;;;;;;6205896;23;20000;-74
2022/02/02 04:59:52;;;;;;;7.68;7.10;;;;;;;;;;6247305;23;20039;-74
2022/02/02 05:05:37;;;;;;;11.82;9.65;;;;;;;;;;6219655;23;20322;-74
2022/02/02 05:10:47;;;;;;;20.48;12.32;;;;;;;;;;6220211;23;20000;-73
2022/02/02 05:14:11;;;;;;;;;;;;;;;;;;6220974;23;19997;-74
2022/02/02 05:19:08;;;;;;;7.28;6.78;;;;;;;;;;6224705;23;20335;-74
2022/02/02 05:48:41;;;;;;;19.23;16.83;;;;;;;;;;6246638;23;20408;-74
2022/02/02 05:51:23;;;;;;;17.70;8.50;;;;;;;;;;6219823;23;20287;-74
2022/02/02 05:53:51;;;;;;;9.30;5.78;;;;;;;;;;6218748;23;20008;-73
2022/02/02 05:56:17;;;;;;;27.70;13.35;;;;;;;;;;6220802;23;19996;-74
2022/02/02 05:58:46;;;;;;;21.38;11.07;;;;;;;;;;6196147;23;20306;-74
2022/02/02 06:01:14;;;;;;;16.77;10.88;;;;;;;;;;6254312;23;20027;-74
2022/02/02 06:03:47;;;;;;;6.90;6.20;;;;;;;;;;6225023;23;20008;-75
2022/02/02 06:06:13;;;;;;;9.88;8.02;;;;;;;;;;6228396;23;19992;-75
2022/02/02 06:08:43;;;;;;;13.90;12.48;;;;;;;;;;6222134;23;20004;-74
2022/02/02 06:11:20;;;;;;;14.82;12.10;;;;;;;;;;6196407;23;20003;-73
2022/02/02 06:13:50;;;;;;;9.10;8.35;;;;;;;;;;6249922;23;19992;-74
2022/02/02 06:16:17;;;;;;;12.98;11.35;;;;;;;;;;6219981;23;19995;-74
2022/02/02 06:18:45;;;;;;;13.23;9.68;;;;;;;;;;6248262;23;20063;-74
2022/02/02 06:21:12;;;;;;;7.97;6.90;;;;;;;;;;6220593;23;20000;-74
2022/02/02 06:23:50;;;;;;;12.90;11.65;;;;;;;;;;6195069;23;19996;-74
2022/02/02 06:26:22;;;;;;;11.27;9.93;;;;;;;;;;6249047;23;19996;-74
2022/02/02 06:28:50;;;;;;;13.52;9.75;;;;;;;;;;6251966;23;19996;-75
2022/02/02 06:31:18;;;;;;;9.55;8.75;;;;;;;;;;6222609;23;20000;-74
2022/02/02 06:33:49;;;;;;;14.30;12.07;;;;;;;;;;6248185;23;19996;-75
2022/02/02 06:36:15;;;;;;;13.90;11.82;;;;;;;;;;6247691;23;19989;-74
2022/02/02 06:38:42;;;;;;;14.48;12.98;;;;;;;;;;6220873;23;20002;-74
2022/02/02 06:41:08;;;;;;;13.32;12.20;;;;;;;;;;6249034;23;19992;-74
2022/02/02 06:43:36;;;;;;;8.30;7.70;;;;;;;;;;6222015;23;20318;-73
2022/02/02 06:46:03;;;;;;;16.55;12.57;;;;;;;;;;6224665;23;20015;-74
2022/02/02 06:48:32;;;;;;;14.05;8.65;;;;;;;;;;6249256;23;20000;-75
2022/02/02 06:51:10;;;;;;;13.48;10.38;;;;;;;;;;6251557;23;19999;-74
2022/02/02 06:53:47;;;;;;;20.17;12.18;;;;;;;;;;6256307;23;20006;-74
2022/02/02 06:59:23;;;;;;;10.13;8.55;;;;;;;;;;6249348;23;20020;-73
2022/02/02 07:07:55;;;;;;;7.90;7.15;;;;;;;;;;6232260;23;19997;-74
2022/02/02 07:18:20;;;;;;;16.92;13.13;;;;;;;;;;6217633;23;20066;-73
2022/02/02 07:21:17;;;;;;;27.75;14.48;;;;;;;;;;6255604;23;20433;-74
2022/02/02 07:24:02;;;;;;;11.57;7.13;;;;;;;;;;6251105;23;20015;-74
2022/02/02 07:32:20;;;;;;;38.70;11.40;;;;;;;;;;6249658;23;19992;-74
2022/02/02 07:34:54;;;;;;;9.55;8.57;;;;;;;;;;6248992;23;20003;-73
2022/02/02 07:37:33;;;;;;;10.45;9.20;;;;;;;;;;6247880;23;19996;-74
2022/02/02 07:40:03;;;;;;;19.65;17.00;;;;;;;;;;6248758;23;20015;-74
2022/02/02 07:42:31;;;;;;;40.47;12.73;;;;;;;;;;6223811;23;20000;-74
2022/02/02 07:45:03;;;;;;;12.10;10.88;;;;;;;;;;6224113;23;20004;-73
2022/02/02 07:47:35;;;;;;;12.65;11.45;;;;;;;;;;6223306;23;19992;-73
2022/02/02 07:50:04;;;;;;;25.05;14.40;;;;;;;;;;6197926;23;20398;-74
2022/02/02 07:52:31;;;;;;;6.22;5.78;;;;;;;;;;6197413;23;20004;-73
2022/02/02 07:55:00;;;;;;;14.77;9.43;;;;;;;;;;6223593;23;20003;-72
2022/02/02 07:57:28;;;;;;;9.13;8.30;;;;;;;;;;6248591;23;19992;-73
2022/02/02 07:59:59;;;;;;;13.57;11.77;;;;;;;;;;6221377;23;20039;-73
2022/02/02 08:05:05;;;;;;;9.02;8.30;;;;;;;;;;6247000;23;20085;-73
2022/02/02 08:07:38;;;;;;;11.70;10.38;;;;;;;;;;6248532;23;20003;-74
2022/02/02 08:13:01;;;;;;;10.82;7.50;;;;;;;;;;6223282;23;20093;-73
2022/02/02 08:15:26;;;;;;;14.82;10.18;;;;;;;;;;6221475;23;20306;-73
2022/02/02 08:17:54;;;;;;;14.50;12.50;;;;;;;;;;6249029;23;19996;-74
2022/02/02 08:20:20;;;;;;;10.05;9.23;;;;;;;;;;6222294;23;20315;-73
2022/02/02 08:22:48;;;;;;;8.35;7.40;;;;;;;;;;6222718;23;20004;-73
2022/02/02 08:25:24;;;;;;;10.73;9.73;;;;;;;;;;6222773;23;20015;-73
2022/02/02 08:27:53;;;;;;;4.80;4.43;;;;;;;;;;6249996;23;19997;-74
2022/02/02 08:30:21;;;;;;;10.85;10.00;;;;;;;;;;6248918;23;19992;-73
2022/02/02 08:32:57;;;;;;;15.20;11.00;;;;;;;;;;6198658;23;20000;-73
2022/02/02 08:35:27;;;;;;;11.55;9.63;;;;;;;;;;6197006;23;20086;-74
2022/02/02 08:38:09;;;;;;;16.85;13.48;;;;;;;;;;6222053;23;19992;-74
2022/02/02 08:40:41;;;;;;;7.60;7.03;;;;;;;;;;6197672;23;20291;-73
2022/02/02 08:43:25;;;;;;;6.75;5.75;;;;;;;;;;6223613;23;20082;-74
2022/02/02 08:46:06;;;;;;;10.55;5.97;;;;;;;;;;6224629;23;19992;-75
2022/02/02 08:48:35;;;;;;;20.70;8.10;;;;;;;;;;6199163;23;20000;-74
2022/02/02 08:51:11;;;;;;;28.00;13.93;;;;;;;;;;6222554;23;20078;-73
2022/02/02 08:56:37;;;;;;;6.13;5.50;;;;;;;;;;6223180;23;20046;-74
2022/02/02 09:01:32;;;;;;;8.00;7.13;;;;;;;;;;6248725;23;19992;-74
2022/02/02 09:06:43;;;;;;;10.63;9.35;;;;;;;;;;6247815;23;20417;-74
2022/02/02 09:20:07;;;;;;;9.73;9.05;;;;;;;;;;6248286;23;19992;-75
2022/02/02 09:25:26;;;;;;;13.68;12.48;;;;;;;;;;6247460;23;20000;-75
2022/02/02 09:36:08;;;;;;;11.80;6.60;;;;;;;;;;6248352;23;19996;-75
2022/02/02 09:38:34;;;;;;;18.85;14.43;;;;;;;;;;6249527;23;19992;-74
2022/02/02 09:43:47;;;;;;;12.13;11.13;;;;;;;;;;6247430;23;20004;-74
2022/02/02 09:46:17;;;;;;;14.43;9.40;;;;;;;;;;6247354;23;20015;-74
2022/02/02 09:48:51;;;;;;;7.13;6.60;;;;;;;;;;6221482;23;19997;-75
2022/02/02 09:51:25;;;;;;;4.88;4.57;;;;;;;;;;6221517;23;19992;-74
2022/02/02 09:54:04;;;;;;;6.30;5.80;;;;;;;;;;6247836;23;20406;-74
2022/02/02 10:04:35;;;;;;;7.65;7.00;;;;;;;;;;6220918;23;20058;-74
2022/02/02 10:10:05;;;;;;;4.85;4.45;;;;;;;;;;6247491;23;19992;-75
2022/02/02 10:15:13;;;;;;;8.00;7.43;;;;;;;;;;6247246;23;20032;-74
2022/02/02 10:17:39;;;;;;;8.48;7.78;;;;;;;;;;6247808;23;19988;-75
2022/02/02 10:20:17;;;;;;;7.95;7.28;;;;;;;;;;6220342;23;20000;-75
2022/02/02 10:22:45;;;;;;;29.17;11.32;;;;;;;;;;6247240;23;19995;-75
2022/02/02 10:25:21;;;;;;;7.40;6.85;;;;;;;;;;6247877;23;20004;-75
2022/02/02 10:27:49;;;;;;;13.27;7.93;;;;;;;;;;6248067;23;20074;-74
2022/02/02 10:30:16;;;;;;;8.82;7.93;;;;;;;;;;6221119;23;20019;-75
2022/02/02 10:32:43;;;;;;;8.80;8.00;;;;;;;;;;6221152;23;19992;-74
2022/02/02 10:35:27;;;;;;;20.27;10.10;;;;;;;;;;6247939;23;20054;-74
2022/02/02 10:37:59;;;;;;;6.30;5.93;;;;;;;;;;6247558;23;20306;-75
2022/02/02 10:41:01;;;;;;;7.47;6.82;;;;;;;;;;6248029;23;20062;-75
2022/02/02 10:43:40;;;;;;;7.22;6.10;;;;;;;;;;6247805;23;20114;-75
2022/02/02 10:46:07;;;;;;;9.00;8.32;;;;;;;;;;6247326;23;19992;-74
2022/02/02 10:48:42;;;;;;;9.75;8.73;;;;;;;;;;6221036;23;20072;-74
2022/02/02 10:51:18;;;;;;;8.52;7.78;;;;;;;;;;6247717;23;19996;-75
2022/02/02 10:56:56;;;;;;;10.55;9.30;;;;;;;;;;6235241;23;20349;-74
2022/02/02 11:07:18;;;;;;;9.85;8.98;;;;;;;;;;6248105;23;19985;-74
2022/02/02 11:09:47;;;;;;;15.35;9.85;;;;;;;;;;6223787;23;20019;-74
2022/02/02 11:12:15;;;;;;;7.65;7.05;;;;;;;;;;6247926;23;20012;-74
2022/02/02 11:14:56;;;;;;;6.85;6.25;;;;;;;;;;6247954;23;20031;-74
2022/02/02 11:17:26;;;;;;;9.07;8.20;;;;;;;;;;6247251;23;19993;-75
2022/02/02 11:19:54;;;;;;;4.85;4.40;;;;;;;;;;6247943;23;20027;-74
2022/02/02 11:22:20;;;;;;;16.60;6.32;;;;;;;;;;6221419;23;19996;-74
2022/02/02 11:24:46;;;;;;;11.38;7.07;;;;;;;;;;6220633;23;20327;-74
2022/02/02 11:27:30;;;;;;;9.82;8.98;;;;;;;;;;6221104;23;20049;-74
2022/02/02 11:29:57;;;;;;;9.93;8.98;;;;;;;;;;6247360;23;20402;-74
2022/02/02 11:32:23;;;;;;;7.88;6.15;;;;;;;;;;6221188;23;20302;-74
2022/02/02 11:35:08;;;;;;;13.48;9.55;;;;;;;;;;6248240;23;19985;-74
2022/02/02 11:37:53;;;;;;;10.68;8.15;;;;;;;;;;6222048;23;20395;-74
2022/02/02 11:40:20;;;;;;;12.88;8.20;;;;;;;;;;6223111;23;20070;-74
2022/02/02 11:45:40;;;;;;;1.85;1.75;;;;;;;;;;6248472;23;20444;-74
2022/02/02 11:48:14;;;;;;;17.50;12.00;;;;;;;;;;6248783;23;20019;-74
2022/02/02 11:50:53;;;;;;;7.28;6.72;;;;;;;;;;6248608;23;20007;-74
2022/02/02 11:53:38;;;;;;;17.20;8.60;;;;;;;;;;6249823;23;20011;-74
2022/02/02 11:56:05;;;;;;;8.98;8.07;;;;;;;;;;6247888;23;20054;-74
2022/02/02 11:58:33;;;;;;;6.70;6.18;;;;;;;;;;6247722;23;19988;-74
2022/02/02 12:01:21;;;;;;;8.10;7.45;;;;;;;;;;6220809;23;20000;-74
2022/02/02 12:04:16;;;;;;;5.43;4.93;;;;;;;;;;6248710;23;20004;-74
2022/02/02 12:07:05;;;;;;;3.55;3.30;;;;;;;;;;6249572;23;19992;-74
2022/02/02 12:09:39;;;;;;;7.88;7.25;;;;;;;;;;6248769;23;20414;-74
2022/02/02 12:58:12;;;;;;;8.43;7.30;;;;;;;;;;6248421;23;19992;-74
2022/02/02 13:03:10;;;;;;;9.88;6.07;;;;;;;;;;6248114;23;20073;-74
2022/02/02 13:05:37;;;;;;;7.90;6.82;;;;;;;;;;6248985;23;19988;-74
2022/02/02 13:08:03;;;;;;;11.57;8.77;;;;;;;;;;6221782;23;20406;-74
2022/02/02 13:10:30;;;;;;;5.60;3.50;;;;;;;;;;6222499;23;19992;-74
2022/02/02 13:13:11;;;;;;;4.30;3.78;;;;;;;;;;6222442;23;19999;-74
2022/02/02 13:23:52;;;;;;;11.77;6.78;;;;;;;;;;6248535;23;20322;-74
2022/02/02 13:26:31;;;;;;;4.95;4.50;;;;;;;;;;6221544;23;19996;-74
2022/02/02 13:29:07;;;;;;;7.35;6.38;;;;;;;;;;6248234;23;19984;-74
2022/02/02 13:31:53;;;;;;;9.95;6.28;;;;;;;;;;6223705;23;19992;-74
2022/02/02 13:56:33;;;;;;;8.05;5.25;;;;;;;;;;6247988;23;20390;-74
2022/02/02 13:59:18;;;;;;;4.82;4.45;;;;;;;;;;6225931;23;20422;-74
2022/02/02 14:02:10;;;;;;;5.35;4.95;;;;;;;;;;6221213;23;19988;-74
2022/02/02 14:31:23;;;;;;;6.10;5.70;;;;;;;;;;6248073;23;20063;-75
2022/02/02 14:33:52;;;;;;;5.60;4.43;;;;;;;;;;6221041;23;20012;-74
2022/02/02 14:36:22;;;;;;;21.00;8.15;;;;;;;;;;6221472;23;19993;-74
2022/02/02 14:41:31;;;;;;;7.65;7.07;;;;;;;;;;6248326;23;20068;-75
2022/02/02 14:46:37;;;;;;;3.33;3.08;;;;;;;;;;6247420;23;20015;-74
2022/02/02 14:49:30;;;;;;;11.57;6.55;;;;;;;;;;6248311;23;19995;-74
2022/02/02 14:52:03;;;;;;;3.83;3.60;;;;;;;;;;6246515;23;20410;-74
2022/02/02 14:54:39;;;;;;;4.13;3.85;;;;;;;;;;6248135;23;19988;-74
2022/02/02 15:06:04;;;;;;;4.10;3.75;;;;;;;;;;6248010;23;20462;-74
2022/02/02 15:32:16;;;;;;;4.72;4.25;;;;;;;;;;6247788;23;20000;-74
2022/02/02 15:34:47;;;;;;;4.30;3.97;;;;;;;;;;6248125;23;20059;-74
2022/02/02 15:39:44;;;;;;;3.83;2.85;;;;;;;;;;6248277;23;19980;-74
2022/02/02 15:58:32;;;;;;;6.15;4.78;;;;;;;;;;6249835;23;19996;-75
2022/02/02 16:03:31;;;;;;;10.27;4.95;;;;;;;;;;6250868;23;20418;-75
2022/02/02 16:06:06;;;;;;;25.35;6.38;;;;;;;;;;6250504;23;20063;-74
2022/02/02 16:08:34;;;;;;;5.88;5.38;;;;;;;;;;6249711;23;20050;-74
2022/02/02 16:11:13;;;;;;;4.68;4.28;;;;;;;;;;6249849;23;20020;-74
2022/02/02 16:35:40;;;;;;;1.35;1.10;;;;;;;;;;6249583;23;20058;-74
2022/02/02 16:37:50;;;;;;;7.75;7.10;;;;;;;;;;6245370;23;20353;-75
2022/02/02 16:40:20;;;;;;;10.65;4.82;;;;;;;;;;6227049;23;20284;-75
2022/02/02 16:43:09;;;;;;;8.38;3.45;;;;;;;;;;6223000;23;20069;-74
2022/02/02 16:45:35;;;;;;;12.55;4.10;;;;;;;;;;6222908;23;20426;-75
2022/02/02 16:48:02;;;;;;;5.97;4.18;;;;;;;;;;6248765;23;20011;-75
2022/02/02 16:50:33;;;;;;;5.57;4.45;;;;;;;;;;6222289;23;20007;-75
2022/02/02 16:53:05;;;;;;;9.27;4.95;;;;;;;;;;6249311;23;20023;-75
2022/02/02 16:55:49;;;;;;;4.05;3.85;;;;;;;;;;6197501;23;19988;-75
2022/02/02 17:29:30;;;;;;;8.38;4.65;;;;;;;;;;6248366;23;20000;-75
2022/02/02 17:31:22;;;;;;;18.42;6.65;;;;;;;;;;6249338;23;20390;-75
2022/02/02 17:33:55;;;;;;;3.28;3.00;;;;;;;;;;6248248;23;20004;-75
2022/02/02 17:36:29;;;;;;;6.43;4.10;;;;;;;;;;6249100;23;19992;-75
2022/02/02 17:39:00;;;;;;;6.38;5.78;;;;;;;;;;6222410;23;19996;-75
2022/02/02 17:44:18;;;;;;;7.38;4.38;;;;;;;;;;6248774;23;20035;-75
2022/02/02 18:19:53;;;;;;;3.63;3.30;;;;;;;;;;6221611;23;19988;-75
2022/02/02 18:22:20;;;;;;;7.80;6.28;;;;;;;;;;6248158;23;19992;-75
2022/02/02 18:25:06;;;;;;;5.03;4.55;;;;;;;;;;6220994;23;20034;-75
2022/02/02 18:27:43;;;;;;;8.23;4.93;;;;;;;;;;6249449;23;20064;-75
2022/02/02 18:32:56;;;;;;;4.72;4.32;;;;;;;;;;6248335;23;20280;-75
2022/02/02 18:35:24;;;;;;;6.55;5.97;;;;;;;;;;6248308;23;20067;-75
2022/02/02 18:39:12;;;;;;;2.05;1.92;;;;;;;;;;6196057;23;20011;-75
2022/02/02 18:49:15;;;;;;;10.23;6.80;;;;;;;;;;6248175;23;20003;-75
2022/02/02 18:52:12;;;;;;;2.10;1.98;;;;;;;;;;6247784;23;20011;-75
2022/02/02 18:57:20;;;;;;;4.65;3.35;;;;;;;;;;6248156;23;20008;-75
2022/02/02 19:05:23;;;;;;;8.15;4.53;;;;;;;;;;6248295;23;20058;-74
2022/02/02 19:40:43;;;;;;;6.63;6.13;;;;;;;;;;6250053;23;19999;-75
2022/02/02 20:07:08;;;;;;;12.30;4.72;;;;;;;;;;6249680;23;20028;-74
2022/02/02 20:12:24;;;;;;;6.78;5.75;;;;;;;;;;6249033;23;20015;-75
2022/02/02 20:14:50;;;;;;;9.15;5.00;;;;;;;;;;6249985;23;19999;-75
2022/02/02 20:17:18;;;;;;;11.48;10.18;;;;;;;;;;6249265;23;20046;-75
2022/02/02 20:19:50;;;;;;;6.93;6.38;;;;;;;;;;6251246;23;19988;-75
2022/02/02 20:22:18;;;;;;;7.57;6.75;;;;;;;;;;6250025;23;20023;-75
2022/02/02 20:24:52;;;;;;;3.58;3.30;;;;;;;;;;6248992;23;20079;-75
2022/02/02 20:27:19;;;;;;;5.85;5.45;;;;;;;;;;6248387;23;20066;-74
2022/02/02 20:29:45;;;;;;;3.78;3.50;;;;;;;;;;6222824;23;19988;-75
2022/02/02 20:32:11;;;;;;;7.03;6.38;;;;;;;;;;6249524;23;20422;-75
2022/02/02 20:34:37;;;;;;;13.93;4.80;;;;;;;;;;6222594;23;19988;-74
2022/02/02 20:37:03;;;;;;;5.55;4.85;;;;;;;;;;6222986;23;19996;-74
2022/02/02 20:39:44;;;;;;;9.50;5.15;;;;;;;;;;6222569;23;19989;-74
2022/02/02 20:42:12;;;;;;;6.93;6.22;;;;;;;;;;6249539;23;20000;-75
2022/02/02 20:45:00;;;;;;;7.82;6.55;;;;;;;;;;6248813;23;20303;-75
2022/02/02 21:11:17;;;;;;;10.52;5.50;;;;;;;;;;6249119;23;20038;-75
2022/02/02 21:13:45;;;;;;;4.13;3.83;;;;;;;;;;6249218;23;19996;-74
2022/02/02 21:16:15;;;;;;;10.65;8.98;;;;;;;;;;6249089;23;19989;-75
2022/02/02 21:18:42;;;;;;;6.87;6.37;;;;;;;;;;6249132;23;20045;-75
2022/02/02 21:21:20;;;;;;;19.50;9.80;;;;;;;;;;6222295;23;20016;-74
2022/02/02 21:29:09;;;;;;;8.30;4.05;;;;;;;;;;6248946;23;19992;-75
2022/02/02 21:31:35;;;;;;;10.40;9.52;;;;;;;;;;6249991;23;20022;-74
2022/02/02 21:34:01;;;;;;;3.72;3.53;;;;;;;;;;6248333;23;20032;-74
2022/02/02 21:36:27;;;;;;;7.95;7.32;;;;;;;;;;6248962;23;20430;-75
2022/02/02 21:39:05;;;;;;;7.00;6.35;;;;;;;;;;6222112;23;19988;-75
2022/02/02 21:41:36;;;;;;;7.07;6.18;;;;;;;;;;6250183;23;19988;-74
2022/02/02 21:44:03;;;;;;;11.13;9.32;;;;;;;;;;6248927;23;20414;-74
2022/02/02 21:46:30;;;;;;;13.77;7.13;;;;;;;;;;6248677;23;19992;-74
2022/02/02 21:48:57;;;;;;;7.13;6.50;;;;;;;;;;6251036;23;19999;-74
2022/02/02 21:51:39;;;;;;;6.55;5.90;;;;;;;;;;6248889;23;20310;-75
2022/02/02 21:54:06;;;;;;;27.35;11.90;;;;;;;;;;6248721;23;20004;-75
2022/02/02 21:56:32;;;;;;;4.97;4.60;;;;;;;;;;6223082;23;19996;-75
2022/02/02 21:58:58;;;;;;;5.45;4.95;;;;;;;;;;6248762;23;19999;-74
2022/02/02 22:01:26;;;;;;;6.28;5.85;;;;;;;;;;6248697;23;19992;-75
2022/02/02 22:03:52;;;;;;;4.85;4.55;;;;;;;;;;6248037;23;20000;-74
2022/02/02 22:06:18;;;;;;;6.22;5.70;;;;;;;;;;6223160;23;19993;-74
2022/02/02 22:08:44;;;;;;;3.35;2.88;;;;;;;;;;6249245;23;20042;-74
2022/02/02 22:11:10;;;;;;;4.45;4.13;;;;;;;;;;6248440;23;19996;-74
2022/02/02 22:13:54;;;;;;;7.88;5.15;;;;;;;;;;6221866;23;20421;-74
2022/02/02 22:16:22;;;;;;;3.22;3.03;;;;;;;;;;6248466;23;20067;-74
2022/02/02 22:18:49;;;;;;;8.50;6.38;;;;;;;;;;6248500;23;19999;-74
2022/02/02 22:21:15;;;;;;;28.42;6.07;;;;;;;;;;6247930;23;19992;-75
2022/02/02 22:23:42;;;;;;;12.30;10.70;;;;;;;;;;6248787;23;20010;-74
2022/02/02 22:26:09;;;;;;;9.20;7.63;;;;;;;;;;6250472;23;20062;-74
2022/02/02 22:28:35;;;;;;;4.50;4.20;;;;;;;;;;6221799;23;19995;-74
2022/02/02 22:31:01;;;;;;;4.45;4.05;;;;;;;;;;6247669;23;20321;-75
2022/02/02 22:33:27;;;;;;;6.07;5.68;;;;;;;;;;6248323;23;20020;-75
2022/02/02 22:35:53;;;;;;;7.35;4.70;;;;;;;;;;6248530;23;20019;-74
2022/02/02 22:38:20;;;;;;;5.63;5.13;;;;;;;;;;6248338;23;19989;-74
2022/02/02 22:40:46;;;;;;;6.00;5.60;;;;;;;;;;6221488;23;19992;-74
2022/02/02 22:43:12;;;;;;;6.25;5.68;;;;;;;;;;6196379;23;20003;-74
2022/02/02 22:45:45;;;;;;;10.45;9.43;;;;;;;;;;6248304;23;20042;-75
2022/02/02 22:48:16;;;;;;;8.65;7.75;;;;;;;;;;6247757;23;19988;-75
2022/02/02 22:50:42;;;;;;;14.15;8.35;;;;;;;;;;6247968;23;20003;-74
2022/02/02 22:53:08;;;;;;;5.38;4.80;;;;;;;;;;6248655;23;20382;-75
2022/02/02 22:55:35;;;;;;;7.75;7.13;;;;;;;;;;6221720;23;19992;-74
2022/02/02 22:58:01;;;;;;;12.73;10.70;;;;;;;;;;6247692;23;19992;-74
2022/02/02 23:00:33;;;;;;;7.90;7.18;;;;;;;;;;6247991;23;19992;-74
2022/02/02 23:03:01;;;;;;;41.78;10.88;;;;;;;;;;6248189;23;20030;-75
2022/02/02 23:05:40;;;;;;;6.78;6.22;;;;;;;;;;6248097;23;20008;-75
2022/02/02 23:08:07;;;;;;;8.65;6.65;;;;;;;;;;6248868;23;19994;-74
2022/02/02 23:10:35;;;;;;;10.90;9.82;;;;;;;;;;6247981;23;20405;-74
2022/02/02 23:13:01;;;;;;;9.35;8.27;;;;;;;;;;6248245;23;20052;-75
2022/02/02 23:15:36;;;;;;;9.07;5.95;;;;;;;;;;6248070;23;20007;-74
2022/02/02 23:18:13;;;;;;;16.80;7.68;;;;;;;;;;6248247;23;20382;-75
2022/02/02 23:20:39;;;;;;;4.57;4.20;;;;;;;;;;6248153;23;19992;-75
2022/02/02 23:23:06;;;;;;;10.00;8.95;;;;;;;;;;6247621;23;20430;-75
2022/02/02 23:25:33;;;;;;;5.25;4.82;;;;;;;;;;6221456;23;20005;-75
2022/02/02 23:28:01;;;;;;;7.60;5.72;;;;;;;;;;6247529;23;19988;-75
2022/02/02 23:30:27;;;;;;;5.85;5.45;;;;;;;;;;6247995;23;20023;-75
2022/02/02 23:32:54;;;;;;;21.38;12.05;;;;;;;;;;6248938;23;19993;-74
2022/02/02 23:35:20;;;;;;;17.95;7.80;;;;;;;;;;6247339;23;20000;-75
2022/02/02 23:37:47;;;;;;;8.35;7.72;;;;;;;;;;6248212;23;19985;-74
2022/02/02 23:40:14;;;;;;;8.10;7.40;;;;;;;;;;6221405;23;19992;-75
2022/02/02 23:42:40;;;;;;;11.98;7.68;;;;;;;;;;6221582;23;20349;-75
2022/02/02 23:45:06;;;;;;;5.45;5.07;;;;;;;;;;6248101;23;20004;-76
2022/02/02 23:47:33;;;;;;;4.47;4.07;;;;;;;;;;6248872;23;19995;-75
2022/02/02 23:50:06;;;;;;;10.40;8.43;;;;;;;;;;6221932;23;20422;-74
2022/02/02 23:52:45;;;;;;;7.13;6.57;;;;;;;;;;6222110;23;20000;-74
2022/02/02 23:55:15;;;;;;;7.70;7.10;;;;;;;;;;6221402;23;20000;-74
